HSSK Airport Information

Runway Information
Runway 18 Length 9751 ft width 148 ft Elevation 1265 ft Threshold N/A Heading 177
Runway 36 Length 9751 ft Width 148 ft Elevation 1260 ft Threshold N/A Heading 357
Airport Frequencies
Airport Navaids
Type VOR-DME Name Khartoum Frequency 112100 KHZ
Airport Weather Information & NOTAM
ADDS - METARS form results

(1635 UTC 02 December 2022)
Data provider http://aviationweather.gov/metar/data/
 
METAR text: HSSK 021630Z 35008KT CAVOK 30/07 Q1010 NOSIG
Conditions at: HSSK (KHARTOUM , SD) observed 1630 UTC 02 December 2022
Temperature: 30.0°C (86°F)
Dewpoint: 7.0°C (45°F) [RH = 24%]
Pressure (altimeter): 29.82 inches Hg (1010.0 mb)
Winds: from the N (350 degrees) at 9 MPH (8 knots; 4.1 m/s)
Visibility: 6 or more miles (10+ km)
Ceiling: ceiling and visibility are OK
Clouds: unknown
Weather: no significant weather observed at this time

METAR text: HSSK 021600Z 35008KT CAVOK 31/07 Q1010 NOSIG
Conditions at: HSSK (KHARTOUM , SD) observed 1600 UTC 02 December 2022
Temperature: 31.0°C (88°F)
Dewpoint: 7.0°C (45°F) [RH = 22%]
Pressure (altimeter): 29.82 inches Hg (1010.0 mb)
Winds: from the N (350 degrees) at 9 MPH (8 knots; 4.1 m/s)
Visibility: 6 or more miles (10+ km)
Ceiling: ceiling and visibility are OK
Clouds: unknown
Weather: no significant weather observed at this time